createdAt,value
2017-06-30T00:00:17.930Z,81.04
2017-06-30T00:00:46.009Z,80.94
2017-06-30T00:01:14.148Z,81.13
2017-06-30T00:01:42.189Z,80.46
2017-06-30T00:02:10.474Z,80.27
2017-06-30T00:02:38.589Z,80.65
2017-06-30T00:03:06.736Z,80.07
2017-06-30T00:03:34.899Z,79.79
2017-06-30T00:04:03.026Z,79.5
2017-06-30T00:04:31.190Z,79.6
2017-06-30T00:04:59.362Z,79.02
2017-06-30T00:05:27.524Z,78.34
2017-06-30T00:05:55.902Z,78.83
2017-06-30T00:06:24.026Z,79.11
2017-06-30T00:06:52.191Z,80.27
2017-06-30T00:07:20.343Z,80.27
2017-06-30T00:07:48.296Z,80.27
2017-06-30T00:08:16.410Z,79.79
2017-06-30T00:08:44.553Z,80.17
2017-06-30T00:09:12.689Z,79.98
2017-06-30T00:09:40.762Z,79.79
2017-06-30T00:10:08.924Z,79.65
2017-06-30T00:10:37.072Z,79.3
2017-06-30T00:11:05.215Z,79.27
2017-06-30T00:11:33.705Z,80.61
2017-06-30T00:12:01.835Z,80.04
2017-06-30T00:12:29.864Z,80.9
2017-06-30T00:12:58.049Z,80.71
2017-06-30T00:13:26.188Z,80.8
2017-06-30T00:13:54.380Z,80.42
2017-06-30T00:14:22.527Z,80.42
2017-06-30T00:14:50.680Z,81.19
2017-06-30T00:15:18.858Z,80.8
2017-06-30T00:15:47.016Z,81.28
2017-06-30T00:16:15.026Z,81.76
2017-06-30T00:16:43.191Z,81.48
2017-06-30T00:17:11.337Z,82.05
2017-06-30T00:17:39.471Z,81.86
2017-06-30T00:18:07.594Z,82.05
2017-06-30T00:18:35.754Z,82.43
2017-06-30T00:19:03.934Z,81.96
2017-06-30T00:19:32.179Z,82.24
2017-06-30T00:20:00.222Z,82.34
2017-06-30T00:20:28.457Z,82.63
2017-06-30T00:20:56.599Z,82.73
2017-06-30T00:21:24.543Z,83.69
2017-06-30T00:21:52.600Z,83.2
2017-06-30T00:22:20.566Z,82.92
2017-06-30T00:22:48.930Z,83.01
2017-06-30T00:23:17.089Z,83.4
2017-06-30T00:23:44.961Z,83.2
2017-06-30T00:24:13.116Z,83.49
2017-06-30T00:24:41.235Z,83.59
2017-06-30T00:25:09.431Z,83.49
2017-06-30T00:25:37.469Z,83.87
2017-06-30T00:26:05.484Z,83.78
2017-06-30T00:26:33.632Z,83.26
2017-06-30T00:27:01.772Z,83.54
2017-06-30T00:27:29.891Z,83.16
2017-06-30T00:27:58.022Z,83.78
2017-06-30T00:28:26.162Z,83.49
2017-06-30T00:28:54.307Z,83.16
2017-06-30T00:29:22.446Z,83.4
2017-06-30T00:29:50.474Z,82.92
2017-06-30T00:30:18.611Z,82.73
2017-06-30T00:30:46.698Z,82.68
2017-06-30T00:31:14.832Z,82.15
2017-06-30T00:31:42.996Z,82.05
2017-06-30T00:32:11.037Z,82.1
2017-06-30T00:32:39.147Z,82.24
2017-06-30T00:33:07.279Z,82.87
2017-06-30T00:33:35.411Z,82.73
2017-06-30T00:34:03.456Z,83.36
2017-06-30T00:34:31.619Z,83.36
2017-06-30T00:34:59.830Z,83.45
2017-06-30T00:35:27.966Z,82.68
2017-06-30T00:35:56.115Z,82.78
2017-06-30T00:36:24.267Z,82.68
2017-06-30T00:36:52.432Z,82.1
2017-06-30T00:37:20.393Z,82.3
2017-06-30T00:37:48.550Z,82.2
2017-06-30T00:38:16.671Z,82.78
2017-06-30T00:38:44.934Z,81.92
2017-06-30T00:39:13.101Z,82.1
2017-06-30T00:39:41.237Z,82.01
2017-06-30T00:40:09.393Z,82.78
2017-06-30T00:40:37.439Z,82.68
2017-06-30T00:41:05.580Z,83.16
2017-06-30T00:41:33.652Z,83.16
2017-06-30T00:42:01.689Z,83.45
2017-06-30T00:42:29.812Z,83.07
2017-06-30T00:42:57.966Z,83.26
2017-06-30T00:43:26.130Z,83.74
2017-06-30T00:43:54.271Z,84.22
2017-06-30T00:44:22.300Z,83.74
2017-06-30T00:44:50.449Z,84.03
2017-06-30T00:45:18.525Z,83.54
2017-06-30T00:45:46.709Z,83.84
2017-06-30T00:46:15.015Z,83.84
2017-06-30T00:46:42.966Z,83.93
2017-06-30T00:47:11.106Z,83.74
2017-06-30T00:47:39.239Z,84.03
2017-06-30T00:48:07.272Z,83.64
2017-06-30T00:48:35.402Z,83.84
2017-06-30T00:49:03.521Z,83.84
2017-06-30T00:49:31.610Z,83.64
2017-06-30T00:49:59.732Z,84.12
2017-06-30T00:50:27.868Z,84.12
2017-06-30T00:50:56.020Z,84.6
2017-06-30T00:51:24.181Z,84.12
2017-06-30T00:51:52.312Z,84.51
2017-06-30T00:52:20.366Z,84.51
2017-06-30T00:52:48.413Z,84.31
2017-06-30T00:53:16.550Z,84.7
2017-06-30T00:53:44.706Z,84.51
2017-06-30T00:54:12.742Z,84.6
2017-06-30T00:54:40.808Z,84.51
2017-06-30T00:55:08.899Z,84.31
2017-06-30T00:55:37.038Z,84.8
2017-06-30T00:56:05.161Z,84.7
2017-06-30T00:56:33.293Z,84.22
2017-06-30T00:57:01.417Z,84.12
2017-06-30T00:57:29.566Z,84.51
2017-06-30T00:57:57.707Z,84.89
2017-06-30T00:58:25.840Z,85.18
2017-06-30T00:58:53.995Z,85.08
2017-06-30T00:59:22.142Z,84.85
2017-06-30T00:59:50.254Z,85.04
2017-06-30T01:00:18.292Z,85.62
2017-06-30T01:00:46.411Z,85.24
2017-06-30T01:01:14.419Z,85.24
2017-06-30T01:01:42.550Z,85.42
2017-06-30T01:02:10.565Z,85.42
2017-06-30T01:02:38.729Z,84.95
2017-06-30T01:03:06.846Z,85.42
2017-06-30T01:03:34.987Z,85.04
2017-06-30T01:04:03.139Z,85.52
2017-06-30T01:04:31.179Z,85.24
2017-06-30T01:04:59.319Z,85.66
2017-06-30T01:05:27.354Z,85.57
2017-06-30T01:05:55.384Z,85.66
2017-06-30T01:06:23.545Z,86.24
2017-06-30T01:06:51.694Z,85.75
2017-06-30T01:07:19.804Z,86.43
2017-06-30T01:07:47.943Z,86.29
2017-06-30T01:08:16.103Z,85.91
2017-06-30T01:08:44.143Z,85.91
2017-06-30T01:09:12.195Z,86.48
2017-06-30T01:09:40.252Z,86.19
2017-06-30T01:10:08.229Z,86.29
2017-06-30T01:10:36.380Z,86.29
2017-06-30T01:11:04.509Z,86.87
2017-06-30T01:11:32.648Z,87.05
2017-06-30T01:12:00.698Z,86.58
2017-06-30T01:12:28.746Z,87.15
2017-06-30T01:12:56.892Z,87.35
2017-06-30T01:13:25.061Z,87.15
2017-06-30T01:13:53.101Z,87.35
2017-06-30T01:14:21.211Z,87.44
2017-06-30T01:14:49.342Z,87.35
2017-06-30T01:15:17.504Z,87.44
2017-06-30T01:15:45.662Z,87.35
2017-06-30T01:16:13.714Z,87.44
2017-06-30T01:16:41.749Z,87.73
2017-06-30T01:17:09.892Z,87.82
2017-06-30T01:17:37.945Z,87.54
2017-06-30T01:18:06.087Z,87.54
2017-06-30T01:18:34.217Z,87.44
2017-06-30T01:19:02.354Z,87.63
2017-06-30T01:19:30.506Z,87.73
2017-06-30T01:19:58.631Z,87.54
2017-06-30T01:20:26.762Z,87.63
2017-06-30T01:20:54.888Z,87.54
2017-06-30T01:21:23.007Z,87.44
2017-06-30T01:21:51.128Z,87.44
2017-06-30T01:22:19.163Z,87.44
2017-06-30T01:22:47.283Z,87.44
2017-06-30T01:23:15.435Z,87.44
2017-06-30T01:23:43.577Z,87.25
2017-06-30T01:24:11.743Z,87.63
2017-06-30T01:24:39.846Z,87.44
2017-06-30T01:25:07.903Z,87.44
2017-06-30T01:25:36.033Z,87.63
2017-06-30T01:26:04.188Z,87.63
2017-06-30T01:26:32.334Z,88.02
2017-06-30T01:27:00.475Z,87.82
2017-06-30T01:27:28.597Z,87.44
2017-06-30T01:27:56.633Z,87.63
2017-06-30T01:28:24.754Z,87.54
2017-06-30T01:28:52.893Z,87.63
2017-06-30T01:29:21.023Z,87.54
2017-06-30T01:29:49.164Z,87.54
2017-06-30T01:30:17.301Z,87.44
2017-06-30T01:30:45.436Z,87.44
2017-06-30T01:31:13.565Z,88.11
2017-06-30T01:31:41.643Z,87.44
2017-06-30T01:32:09.797Z,88.11
2017-06-30T01:32:37.936Z,88.31
2017-06-30T01:33:06.050Z,88.31
2017-06-30T01:33:34.206Z,88.31
2017-06-30T01:34:02.149Z,88.11
2017-06-30T01:34:30.294Z,87.82
2017-06-30T01:34:58.432Z,87.82
2017-06-30T01:35:26.492Z,87.88
2017-06-30T01:35:54.620Z,88.4
2017-06-30T01:36:22.769Z,88.21
2017-06-30T01:36:50.919Z,88.84
2017-06-30T01:37:19.067Z,88.65
2017-06-30T01:37:47.094Z,88.69
2017-06-30T01:38:15.208Z,88.59
2017-06-30T01:38:43.355Z,88.4
2017-06-30T01:39:11.469Z,88.49
2017-06-30T01:39:39.596Z,88.69
2017-06-30T01:40:07.652Z,88.31
2017-06-30T01:40:35.769Z,88.21
2017-06-30T01:41:03.888Z,88.11
2017-06-30T01:41:32.041Z,88.02
2017-06-30T01:42:00.154Z,87.82
2017-06-30T01:42:28.178Z,88.11
2017-06-30T01:42:56.234Z,87.44
2017-06-30T01:43:24.291Z,87.35
2017-06-30T01:43:52.446Z,87.73
2017-06-30T01:44:20.606Z,87.35
2017-06-30T01:44:48.749Z,87.63
2017-06-30T01:45:16.900Z,87.35
2017-06-30T01:45:45.048Z,87.73
2017-06-30T01:46:13.211Z,87.54
2017-06-30T01:46:41.362Z,87.63
2017-06-30T01:47:09.433Z,87.35
2017-06-30T01:47:37.578Z,87.54
2017-06-30T01:48:05.717Z,87.35
2017-06-30T01:48:33.834Z,86.87
2017-06-30T01:49:01.953Z,86.68
2017-06-30T01:49:30.103Z,86.58
2017-06-30T01:49:58.232Z,86.68
2017-06-30T01:50:26.274Z,86.38
2017-06-30T01:50:54.394Z,86.38
2017-06-30T01:51:22.540Z,85.91
2017-06-30T01:51:50.695Z,86.29
2017-06-30T01:52:18.806Z,85.91
2017-06-30T01:52:46.955Z,85.71
2017-06-30T01:53:15.102Z,85.24
2017-06-30T01:53:43.216Z,85.81
2017-06-30T01:54:11.349Z,85.91
2017-06-30T01:54:39.476Z,85.33
2017-06-30T01:55:07.618Z,85.91
2017-06-30T01:55:35.739Z,85.62
2017-06-30T01:56:03.894Z,85.71
2017-06-30T01:56:32.037Z,85.62
2017-06-30T01:57:00.195Z,85.71
2017-06-30T01:57:28.370Z,86
2017-06-30T01:57:56.448Z,86.1
2017-06-30T01:58:24.503Z,86.29
2017-06-30T01:58:52.660Z,86.1
2017-06-30T01:59:20.794Z,86.68
2017-06-30T01:59:48.844Z,86.68
2017-06-30T02:00:16.885Z,86.68
2017-06-30T02:00:45.021Z,86.15
2017-06-30T02:01:12.974Z,86.05
2017-06-30T02:01:41.110Z,86.63
2017-06-30T02:02:09.227Z,86.72
2017-06-30T02:02:37.387Z,86.25
2017-06-30T02:03:05.518Z,87.11
2017-06-30T02:03:33.655Z,87.98
2017-06-30T02:04:01.798Z,87.78
2017-06-30T02:04:29.846Z,88.35
2017-06-30T02:04:57.970Z,88.84
2017-06-30T02:05:26.115Z,88.55
2017-06-30T02:05:54.273Z,88.55
2017-06-30T02:06:22.394Z,88.84
2017-06-30T02:06:50.513Z,89.41
2017-06-30T02:07:18.538Z,89.03
2017-06-30T02:07:46.594Z,88.84
2017-06-30T02:08:14.742Z,89.22
2017-06-30T02:08:42.889Z,89.41
2017-06-30T02:09:11.017Z,89.41
2017-06-30T02:09:39.162Z,88.84
2017-06-30T02:10:07.235Z,88.84
2017-06-30T02:10:35.338Z,88.84
2017-06-30T02:11:03.395Z,88.84
2017-06-30T02:11:31.426Z,89.32
2017-06-30T02:11:59.582Z,88.74
2017-06-30T02:12:27.854Z,89.32
2017-06-30T02:12:55.986Z,89.41
2017-06-30T02:13:24.275Z,89.51
2017-06-30T02:13:52.406Z,89.22
2017-06-30T02:14:20.562Z,89.22
2017-06-30T02:14:48.685Z,89.41
2017-06-30T02:15:16.814Z,89.32
2017-06-30T02:15:44.950Z,89.12
2017-06-30T02:16:13.088Z,89.12
2017-06-30T02:16:41.059Z,89.32
2017-06-30T02:17:09.199Z,89.03
2017-06-30T02:17:37.340Z,89.27
2017-06-30T02:18:05.458Z,89.18
2017-06-30T02:18:33.554Z,89.27
2017-06-30T02:19:01.706Z,89.75
2017-06-30T02:19:29.827Z,90.42
2017-06-30T02:19:57.908Z,89.18
2017-06-30T02:20:26.050Z,89.27
2017-06-30T02:20:54.183Z,89.75
2017-06-30T02:21:22.306Z,89.94
2017-06-30T02:21:50.463Z,90.04
2017-06-30T02:22:18.605Z,90.61
2017-06-30T02:22:46.756Z,89.75
2017-06-30T02:23:14.888Z,89.56
2017-06-30T02:23:43.012Z,90.42
2017-06-30T02:24:11.165Z,91.09
2017-06-30T02:24:39.294Z,91.48
2017-06-30T02:25:07.414Z,91.48
2017-06-30T02:25:35.580Z,91.09
2017-06-30T02:26:03.719Z,91.19
2017-06-30T02:26:31.864Z,91.67
2017-06-30T02:27:00.027Z,92.15
2017-06-30T02:27:28.036Z,92.15
2017-06-30T02:27:56.068Z,92.15
2017-06-30T02:28:24.216Z,92.05
2017-06-30T02:28:52.493Z,92.34
2017-06-30T02:29:20.650Z,92.15
2017-06-30T02:29:48.801Z,92.05
2017-06-30T02:30:16.946Z,91.57
2017-06-30T02:30:45.010Z,92.44
2017-06-30T02:31:13.123Z,92.44
2017-06-30T02:31:41.278Z,91.96
2017-06-30T02:32:09.422Z,91.86
2017-06-30T02:32:37.570Z,92.01
2017-06-30T02:33:05.683Z,91.91
2017-06-30T02:33:33.714Z,92.2
2017-06-30T02:34:01.751Z,91.82
2017-06-30T02:34:29.881Z,92.49
2017-06-30T02:34:57.999Z,92.49
2017-06-30T02:35:26.036Z,92.39
2017-06-30T02:35:54.169Z,92.3
2017-06-30T02:36:22.311Z,92.2
2017-06-30T02:36:50.336Z,92.3
2017-06-30T02:37:18.394Z,92.49
2017-06-30T02:37:46.552Z,92.39
2017-06-30T02:38:14.660Z,92.2
2017-06-30T02:38:42.790Z,92.01
2017-06-30T02:39:10.929Z,92.3
2017-06-30T02:39:39.262Z,91.63
2017-06-30T02:40:07.400Z,91.53
2017-06-30T02:40:35.513Z,91.91
2017-06-30T02:41:03.660Z,91.91
2017-06-30T02:41:31.819Z,92.1
2017-06-30T02:41:59.959Z,92.01
2017-06-30T02:42:28.102Z,91.91
2017-06-30T02:42:56.237Z,91.82
2017-06-30T02:43:24.367Z,92.39
2017-06-30T02:43:52.404Z,92.39
2017-06-30T02:44:20.509Z,92.58
2017-06-30T02:44:48.537Z,92.2
2017-06-30T02:45:16.680Z,92.87
2017-06-30T02:45:44.791Z,92.97
2017-06-30T02:46:12.918Z,92.68
2017-06-30T02:46:41.091Z,92.58
2017-06-30T02:47:09.224Z,92.54
2017-06-30T02:47:37.365Z,92.01
2017-06-30T02:48:05.506Z,91.05
2017-06-30T02:48:33.649Z,91.14
2017-06-30T02:49:01.699Z,91.24
2017-06-30T02:49:29.782Z,90.19
2017-06-30T02:49:57.800Z,89.42
2017-06-30T02:50:25.931Z,89.8
2017-06-30T02:50:54.223Z,91.24
2017-06-30T02:51:22.272Z,91.72
2017-06-30T02:51:50.399Z,93.06
2017-06-30T02:52:18.543Z,92.87
2017-06-30T02:52:46.712Z,93.16
2017-06-30T02:53:14.851Z,92.68
2017-06-30T02:53:42.898Z,92.87
2017-06-30T02:54:11.041Z,92.68
2017-06-30T02:54:39.180Z,92.39
2017-06-30T02:55:07.333Z,92.1
2017-06-30T02:55:35.375Z,92.2
2017-06-30T02:56:03.530Z,91.53
2017-06-30T02:56:31.677Z,92.01
2017-06-30T02:56:59.802Z,90.86
2017-06-30T02:57:27.920Z,91.05
2017-06-30T02:57:56.046Z,92.39
2017-06-30T02:58:24.165Z,92.77
2017-06-30T02:58:52.286Z,93.06
2017-06-30T02:59:20.437Z,94.02
2017-06-30T02:59:48.586Z,93.44
2017-06-30T03:00:16.733Z,93.93
2017-06-30T03:00:44.870Z,94.12
2017-06-30T03:01:12.987Z,93.93
2017-06-30T03:01:41.151Z,93.93
2017-06-30T03:02:09.285Z,93.93
2017-06-30T03:02:37.381Z,93.26
2017-06-30T03:03:05.519Z,92.97
2017-06-30T03:03:33.569Z,93.16
2017-06-30T03:04:01.709Z,92.77
2017-06-30T03:04:29.832Z,93.06
2017-06-30T03:04:57.993Z,93.26
2017-06-30T03:05:26.123Z,93.16
2017-06-30T03:05:54.265Z,93.54
2017-06-30T03:06:22.281Z,93.83
2017-06-30T03:06:50.421Z,93.73
2017-06-30T03:07:18.570Z,93.83
2017-06-30T03:07:46.615Z,93.35
2017-06-30T03:08:14.756Z,93.44
2017-06-30T03:08:42.875Z,93.44
2017-06-30T03:09:11.012Z,93.06
2017-06-30T03:09:39.161Z,93.26
2017-06-30T03:10:07.289Z,93.06
2017-06-30T03:10:35.408Z,92.87
2017-06-30T03:11:03.554Z,92.58
2017-06-30T03:11:31.720Z,92.77
2017-06-30T03:11:59.845Z,93.35
2017-06-30T03:12:27.993Z,93.35
2017-06-30T03:12:56.125Z,94.02
2017-06-30T03:13:24.271Z,93.63
2017-06-30T03:13:52.385Z,93.93
2017-06-30T03:14:20.532Z,93.73
2017-06-30T03:14:48.687Z,94.02
2017-06-30T03:15:16.789Z,94.69
2017-06-30T03:15:44.924Z,94.31
2017-06-30T03:16:13.090Z,94.35
2017-06-30T03:16:41.204Z,93.93
2017-06-30T03:17:09.342Z,94.21
2017-06-30T03:17:37.514Z,94.21
2017-06-30T03:18:05.437Z,93.73
2017-06-30T03:18:33.485Z,93.93
2017-06-30T03:19:01.610Z,94.4
2017-06-30T03:19:29.746Z,94.21
2017-06-30T03:19:57.885Z,94.59
2017-06-30T03:20:26.023Z,94.59
2017-06-30T03:20:54.173Z,94.59
2017-06-30T03:21:22.222Z,95.07
2017-06-30T03:21:50.347Z,94.4
2017-06-30T03:22:18.468Z,94.31
2017-06-30T03:22:46.570Z,94.98
2017-06-30T03:23:14.706Z,94.98
2017-06-30T03:23:42.860Z,94.4
2017-06-30T03:24:11.004Z,94.5
2017-06-30T03:24:39.134Z,94.79
2017-06-30T03:25:07.167Z,94.4
2017-06-30T03:25:35.329Z,94.31
2017-06-30T03:26:03.498Z,94.4
2017-06-30T03:26:31.638Z,94.07
2017-06-30T03:26:59.805Z,94.45
2017-06-30T03:27:27.849Z,94.12
2017-06-30T03:27:56.011Z,94.4
2017-06-30T03:28:24.144Z,94.5
2017-06-30T03:28:52.302Z,94.26
2017-06-30T03:29:20.455Z,94.07
2017-06-30T03:29:48.499Z,94.54
2017-06-30T03:30:16.618Z,94.07
2017-06-30T03:30:44.754Z,94.64
2017-06-30T03:31:12.802Z,94.07
2017-06-30T03:31:40.924Z,94.45
2017-06-30T03:32:09.057Z,94.84
2017-06-30T03:32:37.212Z,94.74
2017-06-30T03:33:05.274Z,94.17
2017-06-30T03:33:33.422Z,94.26
2017-06-30T03:34:01.578Z,93.88
2017-06-30T03:34:29.612Z,93.97
2017-06-30T03:34:57.765Z,93.49
2017-06-30T03:35:25.921Z,94.17
2017-06-30T03:35:54.085Z,94.26
2017-06-30T03:36:22.216Z,94.07
2017-06-30T03:36:50.269Z,93.97
2017-06-30T03:37:18.305Z,93.49
2017-06-30T03:37:46.354Z,93.68
2017-06-30T03:38:14.510Z,92.91
2017-06-30T03:38:42.560Z,93.11
2017-06-30T03:39:10.699Z,93.01
2017-06-30T03:39:38.866Z,93.49
2017-06-30T03:40:07.003Z,92.82
2017-06-30T03:40:35.131Z,92.63
2017-06-30T03:41:03.163Z,92.82
2017-06-30T03:41:31.296Z,92.44
2017-06-30T03:41:59.407Z,92.24
2017-06-30T03:42:27.533Z,92.54
2017-06-30T03:42:55.671Z,92.34
2017-06-30T03:43:23.808Z,92.54
2017-06-30T03:43:51.942Z,92.15
2017-06-30T03:44:20.071Z,92.58
2017-06-30T03:44:48.219Z,91.96
2017-06-30T03:45:16.300Z,92.05
2017-06-30T03:45:44.341Z,92.44
2017-06-30T03:46:12.477Z,92.54
2017-06-30T03:46:40.634Z,93.11
2017-06-30T03:47:08.653Z,93.11
2017-06-30T03:47:36.793Z,93.01
2017-06-30T03:48:04.901Z,93.68
2017-06-30T03:48:32.955Z,93.68
2017-06-30T03:49:01.091Z,94.17
2017-06-30T03:49:29.136Z,94.26
2017-06-30T03:49:57.251Z,94.64
2017-06-30T03:50:25.285Z,95.17
2017-06-30T03:50:53.330Z,95.17
2017-06-30T03:51:21.470Z,95.56
2017-06-30T03:51:49.606Z,95.84
2017-06-30T03:52:17.744Z,95.56
2017-06-30T03:52:45.876Z,95.65
2017-06-30T03:53:14.013Z,96.42
2017-06-30T03:53:42.044Z,96.32
2017-06-30T03:54:10.115Z,96.61
2017-06-30T03:54:38.235Z,96.13
2017-06-30T03:55:06.378Z,96.8
2017-06-30T03:55:34.513Z,96.51
2017-06-30T03:56:02.660Z,96.51
2017-06-30T03:56:30.792Z,96.42
2017-06-30T03:56:58.933Z,96.7
2017-06-30T03:57:26.983Z,97.38
2017-06-30T03:57:55.108Z,96.42
2017-06-30T03:58:23.280Z,96.32
2017-06-30T03:58:51.312Z,96.22
2017-06-30T03:59:19.450Z,96.7
2017-06-30T03:59:47.562Z,96.8
2017-06-30T04:00:15.697Z,96.89
2017-06-30T04:00:45.283Z,96.99
2017-06-30T04:01:13.442Z,96.99
2017-06-30T04:01:41.579Z,97.38
2017-06-30T04:02:09.719Z,97.18
2017-06-30T04:02:37.850Z,97.28
2017-06-30T04:03:05.996Z,97.47
2017-06-30T04:03:34.047Z,97.28
2017-06-30T04:04:02.195Z,97.76
2017-06-30T04:04:30.320Z,97.56
2017-06-30T04:04:58.351Z,97.66
2017-06-30T04:05:26.490Z,97.47
2017-06-30T04:05:54.627Z,97.47
2017-06-30T04:06:22.686Z,97.47
2017-06-30T04:06:50.712Z,97.56
2017-06-30T04:07:18.848Z,96.89
2017-06-30T04:07:46.987Z,96.99
2017-06-30T04:08:15.111Z,96.99
2017-06-30T04:08:43.247Z,96.61
2017-06-30T04:09:11.384Z,96.99
2017-06-30T04:09:39.527Z,96.89
2017-06-30T04:10:07.660Z,96.8
2017-06-30T04:10:35.804Z,96.99
2017-06-30T04:11:03.957Z,97.76
2017-06-30T04:11:32.073Z,97.09
2017-06-30T04:12:00.205Z,97.66
2017-06-30T04:12:28.370Z,97.66
2017-06-30T04:12:56.425Z,98.05
2017-06-30T04:13:24.575Z,98.14
2017-06-30T04:13:52.734Z,97.85
2017-06-30T04:14:20.877Z,97.66
2017-06-30T04:14:49.034Z,97.56
2017-06-30T04:15:17.190Z,98.05
2017-06-30T04:15:45.298Z,98.33
2017-06-30T04:16:13.417Z,97.85
2017-06-30T04:16:41.559Z,97.76
2017-06-30T04:17:09.691Z,98.14
2017-06-30T04:17:37.825Z,97.85
2017-06-30T04:18:06.071Z,97.66
2017-06-30T04:18:34.108Z,98.05
2017-06-30T04:19:02.244Z,97.95
2017-06-30T04:19:30.291Z,98.05
2017-06-30T04:19:58.419Z,97.95
2017-06-30T04:20:26.459Z,97.66
2017-06-30T04:20:54.579Z,98.05
2017-06-30T04:21:22.715Z,97.66
2017-06-30T04:21:50.895Z,98.24
2017-06-30T04:22:18.999Z,98
2017-06-30T04:22:47.127Z,98.14
2017-06-30T04:23:15.178Z,98.72
2017-06-30T04:23:57.820Z,98.33
2017-06-30T04:24:25.957Z,98.28
2017-06-30T04:24:54.052Z,98.47
2017-06-30T04:25:22.186Z,98.28
2017-06-30T04:25:50.337Z,98.28
2017-06-30T04:26:18.451Z,98.47
2017-06-30T04:26:46.608Z,98.67
2017-06-30T04:27:14.657Z,98.81
2017-06-30T04:27:42.814Z,98.67
2017-06-30T04:28:10.947Z,98.67
2017-06-30T04:28:39.002Z,99.24
2017-06-30T04:29:07.086Z,98.86
2017-06-30T04:29:35.242Z,99.24
2017-06-30T04:30:03.392Z,99.34
2017-06-30T04:30:31.549Z,99.99
2017-06-30T04:30:59.704Z,99.82
2017-06-30T04:31:27.738Z,99.99
2017-06-30T04:31:55.882Z,99.91
2017-06-30T04:32:23.932Z,99.82
2017-06-30T04:32:51.962Z,99.63
2017-06-30T04:33:20.128Z,99.91
2017-06-30T04:33:48.189Z,99.91
2017-06-30T04:34:16.313Z,99.99
2017-06-30T04:34:44.464Z,99.99
2017-06-30T04:35:12.527Z,99.72
2017-06-30T04:35:40.682Z,99.53
2017-06-30T04:36:08.811Z,99.99
2017-06-30T04:36:36.975Z,99.99
2017-06-30T04:37:05.127Z,99.82
2017-06-30T04:37:33.269Z,99.82
2017-06-30T04:38:01.314Z,99.34
2017-06-30T04:38:29.465Z,99.15
2017-06-30T04:38:57.539Z,99.43
2017-06-30T04:39:25.667Z,99.1
2017-06-30T04:39:53.820Z,99.19
2017-06-30T04:40:21.966Z,99.24
2017-06-30T04:40:50.307Z,99.15
2017-06-30T04:41:18.359Z,98.67
2017-06-30T04:41:46.510Z,98.76
2017-06-30T04:42:14.663Z,98.57
2017-06-30T04:42:42.719Z,98.47
2017-06-30T04:43:10.858Z,98.72
2017-06-30T04:43:38.973Z,99.05
2017-06-30T04:44:07.002Z,98.47
2017-06-30T04:44:35.150Z,98.67
2017-06-30T04:45:03.305Z,98.47
2017-06-30T04:45:31.331Z,98.62
2017-06-30T04:45:59.472Z,98.67
2017-06-30T04:46:27.587Z,98.19
2017-06-30T04:46:55.699Z,98.19
2017-06-30T04:47:23.830Z,97.9
2017-06-30T04:47:51.963Z,97.8
2017-06-30T04:48:20.092Z,97.61
2017-06-30T04:48:48.232Z,98
2017-06-30T04:49:16.638Z,98
2017-06-30T04:49:44.798Z,97.71
2017-06-30T04:50:12.967Z,97.71
2017-06-30T04:50:41.115Z,98
2017-06-30T04:51:09.257Z,97.23
2017-06-30T04:51:37.363Z,97.61
2017-06-30T04:52:05.502Z,97.52
2017-06-30T04:52:33.456Z,97.52
2017-06-30T04:53:01.569Z,97.8
2017-06-30T04:53:29.617Z,97.33
2017-06-30T04:53:57.730Z,97.23
2017-06-30T04:54:25.887Z,97.47
2017-06-30T04:54:54.022Z,97.85
2017-06-30T04:55:22.056Z,97.61
2017-06-30T04:55:50.516Z,97.61
2017-06-30T04:56:18.669Z,97.61
2017-06-30T04:56:46.809Z,97.14
2017-06-30T04:57:14.940Z,97.14
2017-06-30T04:57:43.124Z,97.33
2017-06-30T04:58:11.262Z,97.52
2017-06-30T04:58:39.402Z,97.42
2017-06-30T04:59:07.527Z,97.61
2017-06-30T04:59:35.676Z,97.61
2017-06-30T05:00:03.537Z,97.61
2017-06-30T05:00:31.600Z,97.71
2017-06-30T05:00:59.717Z,97.8
2017-06-30T05:01:27.765Z,98
2017-06-30T05:01:55.935Z,97.8
2017-06-30T05:02:23.936Z,97.9
2017-06-30T05:02:51.989Z,97.8
2017-06-30T05:03:20.122Z,97.8
2017-06-30T05:03:48.273Z,98.67
2017-06-30T05:04:16.216Z,98.67
2017-06-30T05:04:44.356Z,98.47
2017-06-30T05:05:12.511Z,98.47
2017-06-30T05:05:40.645Z,99.05
2017-06-30T05:06:08.771Z,98.38
2017-06-30T05:06:36.911Z,99.43
2017-06-30T05:07:04.935Z,99.15
2017-06-30T05:07:32.968Z,99.05
2017-06-30T05:08:01.134Z,99.34
2017-06-30T05:08:29.266Z,99.53
2017-06-30T05:08:57.372Z,99.24
2017-06-30T05:09:25.515Z,99.34
2017-06-30T05:09:53.567Z,99.34
2017-06-30T05:10:21.639Z,99.99
2017-06-30T05:10:49.773Z,99.99
2017-06-30T05:11:17.903Z,99.91
2017-06-30T05:11:45.990Z,99.99
2017-06-30T05:12:14.044Z,99.82
2017-06-30T05:12:42.103Z,99.99
2017-06-30T05:13:10.245Z,99.99
2017-06-30T05:13:38.396Z,99.99
2017-06-30T05:14:06.339Z,99.87
2017-06-30T05:14:34.383Z,99.96
2017-06-30T05:15:02.556Z,99.99
2017-06-30T05:15:30.656Z,99.99
2017-06-30T05:15:58.801Z,99.99
2017-06-30T05:16:26.944Z,99.99
2017-06-30T05:16:54.947Z,99.99
2017-06-30T05:17:23.089Z,99.96
2017-06-30T05:17:51.247Z,99.99
2017-06-30T05:18:19.420Z,99.99
2017-06-30T05:18:47.582Z,99.99
2017-06-30T05:19:15.726Z,99.99
2017-06-30T05:19:43.837Z,99.99
2017-06-30T05:20:11.984Z,99.99
2017-06-30T05:20:40.141Z,99.99
2017-06-30T05:21:08.249Z,99.99
2017-06-30T05:21:36.390Z,99.99
2017-06-30T05:22:04.524Z,99.99
2017-06-30T05:22:32.643Z,99.99
2017-06-30T05:23:00.768Z,99.99
2017-06-30T05:23:28.890Z,99.99
2017-06-30T05:23:56.926Z,99.99
2017-06-30T05:24:25.082Z,99.99
2017-06-30T05:24:53.254Z,99.99
2017-06-30T05:25:21.405Z,99.99
2017-06-30T05:25:49.438Z,99.99
2017-06-30T05:26:17.572Z,99.99
2017-06-30T05:26:45.718Z,99.99
2017-06-30T05:27:13.841Z,99.99
2017-06-30T05:27:41.967Z,99.99
2017-06-30T05:28:10.094Z,99.99
2017-06-30T05:28:38.237Z,99.99
2017-06-30T05:29:06.268Z,99.99
2017-06-30T05:29:34.408Z,99.99
2017-06-30T05:30:02.552Z,99.99
2017-06-30T05:30:45.088Z,99.99
2017-06-30T05:31:13.207Z,99.99
2017-06-30T05:31:41.242Z,99.99
2017-06-30T05:32:09.368Z,99.99
2017-06-30T05:32:37.510Z,99.99
2017-06-30T05:33:05.653Z,99.99
2017-06-30T05:33:33.799Z,99.99
2017-06-30T05:34:01.958Z,99.99
2017-06-30T05:34:30.104Z,99.99
2017-06-30T05:34:58.237Z,99.99
2017-06-30T05:35:26.356Z,99.99
2017-06-30T05:35:54.513Z,99.99
2017-06-30T05:36:22.875Z,99.99
2017-06-30T05:36:51.026Z,99.99
2017-06-30T05:37:19.005Z,99.99
2017-06-30T05:37:47.149Z,99.99
2017-06-30T05:38:15.281Z,99.99
2017-06-30T05:38:43.404Z,99.99
2017-06-30T05:39:11.631Z,99.99
2017-06-30T05:39:39.785Z,99.99
2017-06-30T05:40:07.845Z,99.99
2017-06-30T05:40:35.991Z,99.77
2017-06-30T05:41:04.145Z,99.99
2017-06-30T05:41:32.296Z,99.99
2017-06-30T05:42:00.464Z,99.96
2017-06-30T05:42:28.607Z,99.19
2017-06-30T05:42:56.734Z,99.48
2017-06-30T05:43:24.876Z,99.29
2017-06-30T05:43:53.007Z,98.67
2017-06-30T05:44:21.124Z,98.52
2017-06-30T05:44:49.302Z,97.66
2017-06-30T05:45:17.430Z,97.61
2017-06-30T05:45:45.570Z,97.71
2017-06-30T05:46:13.616Z,96.99
2017-06-30T05:46:41.765Z,96.61
2017-06-30T05:47:09.920Z,96.75
2017-06-30T05:47:38.093Z,96.51
2017-06-30T05:48:06.217Z,96.32
2017-06-30T05:48:34.346Z,96.47
2017-06-30T05:49:02.493Z,96.22
2017-06-30T05:49:30.621Z,96.03
2017-06-30T05:49:58.794Z,96.42
2017-06-30T05:50:26.834Z,95.65
2017-06-30T05:50:54.959Z,96.13
2017-06-30T05:51:23.083Z,96.13
2017-06-30T05:51:51.233Z,95.46
2017-06-30T05:52:19.381Z,95.94
2017-06-30T05:52:47.519Z,96.32
2017-06-30T05:53:15.559Z,96.51
2017-06-30T05:53:43.684Z,96.13
2017-06-30T05:54:11.819Z,96.42
2017-06-30T05:54:39.985Z,96.99
2017-06-30T05:55:08.136Z,97.56
2017-06-30T05:55:36.274Z,97.47
2017-06-30T05:56:04.415Z,97.47
2017-06-30T05:56:32.546Z,97.75
2017-06-30T05:57:00.637Z,98.52
2017-06-30T05:57:28.703Z,98.57
2017-06-30T05:57:56.820Z,98.95
2017-06-30T05:58:24.941Z,99.81
2017-06-30T05:58:53.077Z,99.99
2017-06-30T05:59:21.110Z,99.99
2017-06-30T05:59:49.233Z,99.99
2017-06-30T06:00:17.407Z,99.99
2017-06-30T06:00:45.553Z,99.99
2017-06-30T06:01:13.562Z,99.99
2017-06-30T06:01:41.593Z,99.99
2017-06-30T06:02:09.719Z,99.99
2017-06-30T06:02:37.846Z,99.99
2017-06-30T06:03:05.888Z,99.99
2017-06-30T06:03:34.031Z,99.99
2017-06-30T06:04:02.172Z,99.99